sensor_id;sensor_type;location;lat;lon;timestamp;P1;P2;P0
70570;PMS5003;58135;50.948;-1.458;2022-07-29T00:02:05;11;11;
70570;PMS5003;58135;50.948;-1.458;2022-07-29T00:04:33;10;10;
70570;PMS5003;58135;50.948;-1.458;2022-07-29T00:06:56;9;9;
70570;PMS5003;58135;50.948;-1.458;2022-07-29T00:09:22;9;9;
70570;PMS5003;58135;50.948;-1.458;2022-07-29T00:11:47;8;8;
70570;PMS5003;58135;50.948;-1.458;2022-07-29T00:14:13;8;8;
70570;PMS5003;58135;50.948;-1.458;2022-07-29T00:16:38;10;8;
70570;PMS5003;58135;50.948;-1.458;2022-07-29T00:19:04;8;7;
70570;PMS5003;58135;50.948;-1.458;2022-07-29T00:21:30;9;8;
70570;PMS5003;58135;50.948;-1.458;2022-07-29T00:23:55;11;11;
70570;PMS5003;58135;50.948;-1.458;2022-07-29T00:26:21;8;8;
70570;PMS5003;58135;50.948;-1.458;2022-07-29T00:28:46;8;8;
70570;PMS5003;58135;50.948;-1.458;2022-07-29T00:31:12;9;8;
70570;PMS5003;58135;50.948;-1.458;2022-07-29T00:33:37;8;8;
70570;PMS5003;58135;50.948;-1.458;2022-07-29T00:36:03;11;10;
70570;PMS5003;58135;50.948;-1.458;2022-07-29T00:38:28;10;8;
70570;PMS5003;58135;50.948;-1.458;2022-07-29T00:40:53;7;7;
70570;PMS5003;58135;50.948;-1.458;2022-07-29T00:43:19;8;8;
70570;PMS5003;58135;50.948;-1.458;2022-07-29T00:45:45;7;7;
70570;PMS5003;58135;50.948;-1.458;2022-07-29T00:48:10;7;6;
70570;PMS5003;58135;50.948;-1.458;2022-07-29T00:50:36;6;6;
70570;PMS5003;58135;50.948;-1.458;2022-07-29T00:53:02;8;6;
70570;PMS5003;58135;50.948;-1.458;2022-07-29T00:55:27;7;6;
70570;PMS5003;58135;50.948;-1.458;2022-07-29T00:57:53;7;6;
70570;PMS5003;58135;50.948;-1.458;2022-07-29T01:00:19;6;6;
70570;PMS5003;58135;50.948;-1.458;2022-07-29T01:02:49;6;6;
70570;PMS5003;58135;50.948;-1.458;2022-07-29T01:05:09;5;5;
70570;PMS5003;58135;50.948;-1.458;2022-07-29T01:07:35;6;6;
70570;PMS5003;58135;50.948;-1.458;2022-07-29T01:10:01;4;4;
70570;PMS5003;58135;50.948;-1.458;2022-07-29T01:12:26;7;7;
70570;PMS5003;58135;50.948;-1.458;2022-07-29T01:14:52;6;6;
70570;PMS5003;58135;50.948;-1.458;2022-07-29T01:17:18;5;5;
70570;PMS5003;58135;50.948;-1.458;2022-07-29T01:19:46;6;5;
70570;PMS5003;58135;50.948;-1.458;2022-07-29T01:22:12;6;5;
70570;PMS5003;58135;50.948;-1.458;2022-07-29T01:24:39;5;5;
70570;PMS5003;58135;50.948;-1.458;2022-07-29T01:27:01;6;6;
70570;PMS5003;58135;50.948;-1.458;2022-07-29T01:29:26;6;6;
70570;PMS5003;58135;50.948;-1.458;2022-07-29T01:31:52;5;5;
70570;PMS5003;58135;50.948;-1.458;2022-07-29T01:34:17;6;5;
70570;PMS5003;58135;50.948;-1.458;2022-07-29T01:36:43;5;5;
70570;PMS5003;58135;50.948;-1.458;2022-07-29T01:39:08;6;6;
70570;PMS5003;58135;50.948;-1.458;2022-07-29T01:41:33;6;6;
70570;PMS5003;58135;50.948;-1.458;2022-07-29T01:43:59;6;6;
70570;PMS5003;58135;50.948;-1.458;2022-07-29T01:46:24;4;4;
70570;PMS5003;58135;50.948;-1.458;2022-07-29T01:48:50;5;5;
70570;PMS5003;58135;50.948;-1.458;2022-07-29T01:51:16;7;7;
70570;PMS5003;58135;50.948;-1.458;2022-07-29T01:53:42;6;6;
70570;PMS5003;58135;50.948;-1.458;2022-07-29T01:56:06;6;6;
70570;PMS5003;58135;50.948;-1.458;2022-07-29T01:58:31;6;6;
70570;PMS5003;58135;50.948;-1.458;2022-07-29T02:00:57;5;5;
70570;PMS5003;58135;50.948;-1.458;2022-07-29T02:03:23;4;4;
70570;PMS5003;58135;50.948;-1.458;2022-07-29T02:05:48;7;7;
70570;PMS5003;58135;50.948;-1.458;2022-07-29T02:08:14;6;6;
70570;PMS5003;58135;50.948;-1.458;2022-07-29T02:10:40;8;7;
70570;PMS5003;58135;50.948;-1.458;2022-07-29T02:13:05;5;5;
70570;PMS5003;58135;50.948;-1.458;2022-07-29T02:15:31;6;6;
70570;PMS5003;58135;50.948;-1.458;2022-07-29T02:17:58;6;6;
70570;PMS5003;58135;50.948;-1.458;2022-07-29T02:20:22;5;4;
70570;PMS5003;58135;50.948;-1.458;2022-07-29T02:22:47;7;6;
70570;PMS5003;58135;50.948;-1.458;2022-07-29T02:25:13;6;6;
70570;PMS5003;58135;50.948;-1.458;2022-07-29T02:27:38;6;6;
70570;PMS5003;58135;50.948;-1.458;2022-07-29T02:30:09;7;7;
70570;PMS5003;58135;50.948;-1.458;2022-07-29T02:32:29;7;7;
70570;PMS5003;58135;50.948;-1.458;2022-07-29T02:34:55;6;6;
70570;PMS5003;58135;50.948;-1.458;2022-07-29T02:37:20;7;7;
70570;PMS5003;58135;50.948;-1.458;2022-07-29T02:39:46;7;7;
70570;PMS5003;58135;50.948;-1.458;2022-07-29T02:42:13;8;7;
70570;PMS5003;58135;50.948;-1.458;2022-07-29T02:44:37;7;7;
70570;PMS5003;58135;50.948;-1.458;2022-07-29T02:47:04;7;7;
70570;PMS5003;58135;50.948;-1.458;2022-07-29T02:49:31;5;5;
70570;PMS5003;58135;50.948;-1.458;2022-07-29T02:51:54;4;4;
70570;PMS5003;58135;50.948;-1.458;2022-07-29T02:54:21;6;6;
70570;PMS5003;58135;50.948;-1.458;2022-07-29T02:56:45;9;7;
70570;PMS5003;58135;50.948;-1.458;2022-07-29T02:59:11;7;7;
70570;PMS5003;58135;50.948;-1.458;2022-07-29T03:01:42;7;7;
70570;PMS5003;58135;50.948;-1.458;2022-07-29T03:04:03;7;7;
70570;PMS5003;58135;50.948;-1.458;2022-07-29T03:06:27;6;5;
70570;PMS5003;58135;50.948;-1.458;2022-07-29T03:08:53;8;6;
70570;PMS5003;58135;50.948;-1.458;2022-07-29T03:11:18;9;7;
70570;PMS5003;58135;50.948;-1.458;2022-07-29T03:13:44;9;7;
70570;PMS5003;58135;50.948;-1.458;2022-07-29T03:16:09;12;10;
70570;PMS5003;58135;50.948;-1.458;2022-07-29T03:18:35;5;5;
70570;PMS5003;58135;50.948;-1.458;2022-07-29T03:21:02;10;9;
70570;PMS5003;58135;50.948;-1.458;2022-07-29T03:23:27;6;6;
70570;PMS5003;58135;50.948;-1.458;2022-07-29T03:25:53;8;7;
70570;PMS5003;58135;50.948;-1.458;2022-07-29T03:28:18;8;7;
70570;PMS5003;58135;50.948;-1.458;2022-07-29T03:30:43;5;5;
70570;PMS5003;58135;50.948;-1.458;2022-07-29T03:33:09;6;6;
70570;PMS5003;58135;50.948;-1.458;2022-07-29T03:35:35;5;4;
70570;PMS5003;58135;50.948;-1.458;2022-07-29T03:38:00;9;7;
70570;PMS5003;58135;50.948;-1.458;2022-07-29T03:40:27;5;4;
70570;PMS5003;58135;50.948;-1.458;2022-07-29T03:42:51;6;6;
70570;PMS5003;58135;50.948;-1.458;2022-07-29T03:45:17;7;7;
70570;PMS5003;58135;50.948;-1.458;2022-07-29T03:47:43;9;9;
70570;PMS5003;58135;50.948;-1.458;2022-07-29T03:50:09;11;11;
70570;PMS5003;58135;50.948;-1.458;2022-07-29T03:52:33;14;14;
70570;PMS5003;58135;50.948;-1.458;2022-07-29T03:55:04;8;8;
70570;PMS5003;58135;50.948;-1.458;2022-07-29T03:57:25;8;8;
70570;PMS5003;58135;50.948;-1.458;2022-07-29T03:59:50;11;10;
70570;PMS5003;58135;50.948;-1.458;2022-07-29T04:02:15;11;11;
70570;PMS5003;58135;50.948;-1.458;2022-07-29T04:04:41;10;10;
70570;PMS5003;58135;50.948;-1.458;2022-07-29T04:07:06;9;9;
70570;PMS5003;58135;50.948;-1.458;2022-07-29T04:09:32;9;9;
70570;PMS5003;58135;50.948;-1.458;2022-07-29T04:11:58;11;11;
70570;PMS5003;58135;50.948;-1.458;2022-07-29T04:14:23;9;8;
70570;PMS5003;58135;50.948;-1.458;2022-07-29T04:16:49;10;10;
70570;PMS5003;58135;50.948;-1.458;2022-07-29T04:19:14;8;8;
70570;PMS5003;58135;50.948;-1.458;2022-07-29T04:21:40;8;8;
70570;PMS5003;58135;50.948;-1.458;2022-07-29T04:24:06;9;9;
70570;PMS5003;58135;50.948;-1.458;2022-07-29T04:26:31;7;7;
70570;PMS5003;58135;50.948;-1.458;2022-07-29T04:28:57;9;9;
70570;PMS5003;58135;50.948;-1.458;2022-07-29T04:31:22;8;8;
70570;PMS5003;58135;50.948;-1.458;2022-07-29T04:33:52;7;6;
70570;PMS5003;58135;50.948;-1.458;2022-07-29T04:36:13;4;4;
70570;PMS5003;58135;50.948;-1.458;2022-07-29T04:38:39;7;5;
70570;PMS5003;58135;50.948;-1.458;2022-07-29T04:41:04;5;4;
70570;PMS5003;58135;50.948;-1.458;2022-07-29T04:43:30;5;5;
70570;PMS5003;58135;50.948;-1.458;2022-07-29T04:45:55;3;3;
70570;PMS5003;58135;50.948;-1.458;2022-07-29T04:48:21;7;6;
70570;PMS5003;58135;50.948;-1.458;2022-07-29T04:50:47;7;6;
70570;PMS5003;58135;50.948;-1.458;2022-07-29T04:53:12;4;4;
70570;PMS5003;58135;50.948;-1.458;2022-07-29T04:55:38;5;5;
70570;PMS5003;58135;50.948;-1.458;2022-07-29T04:58:03;7;7;
70570;PMS5003;58135;50.948;-1.458;2022-07-29T05:00:29;7;6;
70570;PMS5003;58135;50.948;-1.458;2022-07-29T05:02:55;6;5;
70570;PMS5003;58135;50.948;-1.458;2022-07-29T05:05:25;9;8;
70570;PMS5003;58135;50.948;-1.458;2022-07-29T05:07:46;6;6;
70570;PMS5003;58135;50.948;-1.458;2022-07-29T05:10:12;5;4;
70570;PMS5003;58135;50.948;-1.458;2022-07-29T05:12:37;8;8;
70570;PMS5003;58135;50.948;-1.458;2022-07-29T05:15:03;5;5;
70570;PMS5003;58135;50.948;-1.458;2022-07-29T05:17:28;7;6;
70570;PMS5003;58135;50.948;-1.458;2022-07-29T05:19:54;7;7;
70570;PMS5003;58135;50.948;-1.458;2022-07-29T05:22:19;4;4;
70570;PMS5003;58135;50.948;-1.458;2022-07-29T05:24:50;6;6;
70570;PMS5003;58135;50.948;-1.458;2022-07-29T05:27:10;4;4;
70570;PMS5003;58135;50.948;-1.458;2022-07-29T05:29:41;6;6;
70570;PMS5003;58135;50.948;-1.458;2022-07-29T05:32:07;7;7;
70570;PMS5003;58135;50.948;-1.458;2022-07-29T05:34:28;5;5;
70570;PMS5003;58135;50.948;-1.458;2022-07-29T05:36:53;4;4;
70570;PMS5003;58135;50.948;-1.458;2022-07-29T05:39:18;5;5;
70570;PMS5003;58135;50.948;-1.458;2022-07-29T05:41:44;5;5;
70570;PMS5003;58135;50.948;-1.458;2022-07-29T05:44:09;5;5;
70570;PMS5003;58135;50.948;-1.458;2022-07-29T05:46:35;5;4;
70570;PMS5003;58135;50.948;-1.458;2022-07-29T05:49:01;5;5;
70570;PMS5003;58135;50.948;-1.458;2022-07-29T05:51:26;3;3;
70570;PMS5003;58135;50.948;-1.458;2022-07-29T05:53:52;4;4;
70570;PMS5003;58135;50.948;-1.458;2022-07-29T05:56:17;6;5;
70570;PMS5003;58135;50.948;-1.458;2022-07-29T05:58:43;5;5;
70570;PMS5003;58135;50.948;-1.458;2022-07-29T06:01:09;7;7;
70570;PMS5003;58135;50.948;-1.458;2022-07-29T06:03:34;4;4;
70570;PMS5003;58135;50.948;-1.458;2022-07-29T06:05:59;8;7;
70570;PMS5003;58135;50.948;-1.458;2022-07-29T06:08:25;5;5;
70570;PMS5003;58135;50.948;-1.458;2022-07-29T06:10:52;5;5;
70570;PMS5003;58135;50.948;-1.458;2022-07-29T06:13:16;6;6;
70570;PMS5003;58135;50.948;-1.458;2022-07-29T06:15:43;6;5;
70570;PMS5003;58135;50.948;-1.458;2022-07-29T06:18:12;6;5;
70570;PMS5003;58135;50.948;-1.458;2022-07-29T06:20:34;9;6;
70570;PMS5003;58135;50.948;-1.458;2022-07-29T06:22:58;8;6;
70570;PMS5003;58135;50.948;-1.458;2022-07-29T06:25:24;7;6;
70570;PMS5003;58135;50.948;-1.458;2022-07-29T06:27:50;6;6;
70570;PMS5003;58135;50.948;-1.458;2022-07-29T06:30:15;8;6;
70570;PMS5003;58135;50.948;-1.458;2022-07-29T06:32:40;5;5;
70570;PMS5003;58135;50.948;-1.458;2022-07-29T06:35:06;8;8;
70570;PMS5003;58135;50.948;-1.458;2022-07-29T06:37:31;9;8;
70570;PMS5003;58135;50.948;-1.458;2022-07-29T06:39:57;8;7;
70570;PMS5003;58135;50.948;-1.458;2022-07-29T06:42:23;8;7;
70570;PMS5003;58135;50.948;-1.458;2022-07-29T06:44:49;8;7;
70570;PMS5003;58135;50.948;-1.458;2022-07-29T06:47:14;7;7;
70570;PMS5003;58135;50.948;-1.458;2022-07-29T06:49:44;9;8;
70570;PMS5003;58135;50.948;-1.458;2022-07-29T06:52:05;7;7;
70570;PMS5003;58135;50.948;-1.458;2022-07-29T06:54:30;7;6;
70570;PMS5003;58135;50.948;-1.458;2022-07-29T06:56:56;5;5;
70570;PMS5003;58135;50.948;-1.458;2022-07-29T06:59:30;5;5;
70570;PMS5003;58135;50.948;-1.458;2022-07-29T07:01:47;5;5;
70570;PMS5003;58135;50.948;-1.458;2022-07-29T07:04:21;6;6;
70570;PMS5003;58135;50.948;-1.458;2022-07-29T07:06:41;7;7;
70570;PMS5003;58135;50.948;-1.458;2022-07-29T07:09:04;7;6;
70570;PMS5003;58135;50.948;-1.458;2022-07-29T07:11:29;8;8;
70570;PMS5003;58135;50.948;-1.458;2022-07-29T07:13:55;6;6;
70570;PMS5003;58135;50.948;-1.458;2022-07-29T07:16:28;5;5;
70570;PMS5003;58135;50.948;-1.458;2022-07-29T07:18:46;6;6;
70570;PMS5003;58135;50.948;-1.458;2022-07-29T07:21:12;6;6;
70570;PMS5003;58135;50.948;-1.458;2022-07-29T07:23:42;6;6;
70570;PMS5003;58135;50.948;-1.458;2022-07-29T07:26:09;6;6;
70570;PMS5003;58135;50.948;-1.458;2022-07-29T07:28:28;4;4;
70570;PMS5003;58135;50.948;-1.458;2022-07-29T07:30:55;7;7;
70570;PMS5003;58135;50.948;-1.458;2022-07-29T07:33:19;5;4;
70570;PMS5003;58135;50.948;-1.458;2022-07-29T07:35:44;4;4;
70570;PMS5003;58135;50.948;-1.458;2022-07-29T07:38:10;7;7;
70570;PMS5003;58135;50.948;-1.458;2022-07-29T07:40:36;8;6;
70570;PMS5003;58135;50.948;-1.458;2022-07-29T07:43:07;5;5;
70570;PMS5003;58135;50.948;-1.458;2022-07-29T07:45:27;7;7;
70570;PMS5003;58135;50.948;-1.458;2022-07-29T07:48:00;6;6;
70570;PMS5003;58135;50.948;-1.458;2022-07-29T07:50:18;7;5;
70570;PMS5003;58135;50.948;-1.458;2022-07-29T07:52:47;6;5;
70570;PMS5003;58135;50.948;-1.458;2022-07-29T07:55:09;6;5;
70570;PMS5003;58135;50.948;-1.458;2022-07-29T07:57:34;7;6;
70570;PMS5003;58135;50.948;-1.458;2022-07-29T08:00:00;5;5;
70570;PMS5003;58135;50.948;-1.458;2022-07-29T08:02:26;5;5;
70570;PMS5003;58135;50.948;-1.458;2022-07-29T08:04:51;6;5;
70570;PMS5003;58135;50.948;-1.458;2022-07-29T08:09:41;8;7;
70570;PMS5003;58135;50.948;-1.458;2022-07-29T08:12:12;7;6;
70570;PMS5003;58135;50.948;-1.458;2022-07-29T08:14:32;4;4;
70570;PMS5003;58135;50.948;-1.458;2022-07-29T08:17:03;5;5;
70570;PMS5003;58135;50.948;-1.458;2022-07-29T08:19:23;6;5;
70570;PMS5003;58135;50.948;-1.458;2022-07-29T08:21:50;5;4;
70570;PMS5003;58135;50.948;-1.458;2022-07-29T08:24:14;4;4;
70570;PMS5003;58135;50.948;-1.458;2022-07-29T08:26:40;6;6;
70570;PMS5003;58135;50.948;-1.458;2022-07-29T08:29:09;6;5;
70570;PMS5003;58135;50.948;-1.458;2022-07-29T08:31:31;4;4;
70570;PMS5003;58135;50.948;-1.458;2022-07-29T08:33:57;3;3;
70570;PMS5003;58135;50.948;-1.458;2022-07-29T08:36:27;4;4;
70570;PMS5003;58135;50.948;-1.458;2022-07-29T08:38:46;6;6;
70570;PMS5003;58135;50.948;-1.458;2022-07-29T08:41:17;5;5;
70570;PMS5003;58135;50.948;-1.458;2022-07-29T08:43:39;6;6;
70570;PMS5003;58135;50.948;-1.458;2022-07-29T08:46:03;4;4;
70570;PMS5003;58135;50.948;-1.458;2022-07-29T08:48:28;5;5;
70570;PMS5003;58135;50.948;-1.458;2022-07-29T08:50:56;6;6;
70570;PMS5003;58135;50.948;-1.458;2022-07-29T08:53:19;6;5;
70570;PMS5003;58135;50.948;-1.458;2022-07-29T08:55:46;5;5;
70570;PMS5003;58135;50.948;-1.458;2022-07-29T08:58:10;5;5;
70570;PMS5003;58135;50.948;-1.458;2022-07-29T09:00:36;5;5;
70570;PMS5003;58135;50.948;-1.458;2022-07-29T09:03:01;5;5;
70570;PMS5003;58135;50.948;-1.458;2022-07-29T09:05:27;6;5;
70570;PMS5003;58135;50.948;-1.458;2022-07-29T09:07:52;6;5;
70570;PMS5003;58135;50.948;-1.458;2022-07-29T09:10:18;5;5;
70570;PMS5003;58135;50.948;-1.458;2022-07-29T09:12:43;5;5;
70570;PMS5003;58135;50.948;-1.458;2022-07-29T09:15:09;5;4;
70570;PMS5003;58135;50.948;-1.458;2022-07-29T09:17:40;4;4;
70570;PMS5003;58135;50.948;-1.458;2022-07-29T09:20:08;5;5;
70570;PMS5003;58135;50.948;-1.458;2022-07-29T09:22:28;4;4;
70570;PMS5003;58135;50.948;-1.458;2022-07-29T09:24:50;5;4;
70570;PMS5003;58135;50.948;-1.458;2022-07-29T09:27:22;5;4;
70570;PMS5003;58135;50.948;-1.458;2022-07-29T09:29:42;4;3;
70570;PMS5003;58135;50.948;-1.458;2022-07-29T09:32:08;4;4;
70570;PMS5003;58135;50.948;-1.458;2022-07-29T09:34:33;3;3;
70570;PMS5003;58135;50.948;-1.458;2022-07-29T09:36:58;3;3;
70570;PMS5003;58135;50.948;-1.458;2022-07-29T09:39:28;3;3;
70570;PMS5003;58135;50.948;-1.458;2022-07-29T09:41:50;4;3;
70570;PMS5003;58135;50.948;-1.458;2022-07-29T09:44:15;2;2;
70570;PMS5003;58135;50.948;-1.458;2022-07-29T09:46:40;3;3;
70570;PMS5003;58135;50.948;-1.458;2022-07-29T09:49:06;4;4;
70570;PMS5003;58135;50.948;-1.458;2022-07-29T09:51:31;4;4;
70570;PMS5003;58135;50.948;-1.458;2022-07-29T09:53:56;5;4;
70570;PMS5003;58135;50.948;-1.458;2022-07-29T09:58:47;5;3;
70570;PMS5003;58135;50.948;-1.458;2022-07-29T10:01:13;3;3;
70570;PMS5003;58135;50.948;-1.458;2022-07-29T10:06:05;4;4;
70570;PMS5003;58135;50.948;-1.458;2022-07-29T10:08:29;4;4;
70570;PMS5003;58135;50.948;-1.458;2022-07-29T10:11:05;3;3;
70570;PMS5003;58135;50.948;-1.458;2022-07-29T10:13:20;3;3;
70570;PMS5003;58135;50.948;-1.458;2022-07-29T10:15:46;3;3;
70570;PMS5003;58135;50.948;-1.458;2022-07-29T10:18:12;2;2;
70570;PMS5003;58135;50.948;-1.458;2022-07-29T10:20:42;4;3;
70570;PMS5003;58135;50.948;-1.458;2022-07-29T10:23:08;2;2;
70570;PMS5003;58135;50.948;-1.458;2022-07-29T10:25:28;2;2;
70570;PMS5003;58135;50.948;-1.458;2022-07-29T10:27:53;3;3;
70570;PMS5003;58135;50.948;-1.458;2022-07-29T10:30:18;8;8;
70570;PMS5003;58135;50.948;-1.458;2022-07-29T10:32:49;2;2;
70570;PMS5003;58135;50.948;-1.458;2022-07-29T10:35:12;3;3;
70570;PMS5003;58135;50.948;-1.458;2022-07-29T10:37:45;3;3;
70570;PMS5003;58135;50.948;-1.458;2022-07-29T10:40:07;3;3;
70570;PMS5003;58135;50.948;-1.458;2022-07-29T10:42:27;3;3;
70570;PMS5003;58135;50.948;-1.458;2022-07-29T10:44:51;3;3;
70570;PMS5003;58135;50.948;-1.458;2022-07-29T10:47:20;3;3;
70570;PMS5003;58135;50.948;-1.458;2022-07-29T10:52:12;4;4;
70570;PMS5003;58135;50.948;-1.458;2022-07-29T10:54:39;4;4;
70570;PMS5003;58135;50.948;-1.458;2022-07-29T10:59:24;5;4;
70570;PMS5003;58135;50.948;-1.458;2022-07-29T11:01:49;3;3;
70570;PMS5003;58135;50.948;-1.458;2022-07-29T11:04:15;4;4;
70570;PMS5003;58135;50.948;-1.458;2022-07-29T11:11:31;4;4;
70570;PMS5003;58135;50.948;-1.458;2022-07-29T11:14:02;4;3;
70570;PMS5003;58135;50.948;-1.458;2022-07-29T11:16:22;5;5;
70570;PMS5003;58135;50.948;-1.458;2022-07-29T11:23:39;3;3;
70570;PMS5003;58135;50.948;-1.458;2022-07-29T11:28:29;6;5;
70570;PMS5003;58135;50.948;-1.458;2022-07-29T11:30:56;4;4;
70570;PMS5003;58135;50.948;-1.458;2022-07-29T11:33:28;4;4;
70570;PMS5003;58135;50.948;-1.458;2022-07-29T11:40:37;5;5;
70570;PMS5003;58135;50.948;-1.458;2022-07-29T11:43:03;4;3;
70570;PMS5003;58135;50.948;-1.458;2022-07-29T11:47:58;3;3;
70570;PMS5003;58135;50.948;-1.458;2022-07-29T11:50:31;5;4;
70570;PMS5003;58135;50.948;-1.458;2022-07-29T11:55:21;4;4;
70570;PMS5003;58135;50.948;-1.458;2022-07-29T12:00:12;4;4;
70570;PMS5003;58135;50.948;-1.458;2022-07-29T12:04:54;4;4;
70570;PMS5003;58135;50.948;-1.458;2022-07-29T12:07:26;3;3;
70570;PMS5003;58135;50.948;-1.458;2022-07-29T12:12:08;4;4;
70570;PMS5003;58135;50.948;-1.458;2022-07-29T12:14:33;4;4;
70570;PMS5003;58135;50.948;-1.458;2022-07-29T12:19:25;5;4;
70570;PMS5003;58135;50.948;-1.458;2022-07-29T12:22:01;3;3;
70570;PMS5003;58135;50.948;-1.458;2022-07-29T12:24:15;3;3;
70570;PMS5003;58135;50.948;-1.458;2022-07-29T12:29:06;4;4;
70570;PMS5003;58135;50.948;-1.458;2022-07-29T12:31:36;3;3;
70570;PMS5003;58135;50.948;-1.458;2022-07-29T12:33:57;3;3;
70570;PMS5003;58135;50.948;-1.458;2022-07-29T12:36:21;2;2;
70570;PMS5003;58135;50.948;-1.458;2022-07-29T12:38:47;3;3;
70570;PMS5003;58135;50.948;-1.458;2022-07-29T12:41:19;2;2;
70570;PMS5003;58135;50.948;-1.458;2022-07-29T12:46:12;3;3;
70570;PMS5003;58135;50.948;-1.458;2022-07-29T12:48:39;3;3;
70570;PMS5003;58135;50.948;-1.458;2022-07-29T12:51:10;2;2;
70570;PMS5003;58135;50.948;-1.458;2022-07-29T14:47:56;3;3;
70570;PMS5003;58135;50.948;-1.458;2022-07-29T15:37:06;4;4;
70570;PMS5003;58135;50.948;-1.458;2022-07-29T15:39:29;5;5;
70570;PMS5003;58135;50.948;-1.458;2022-07-29T15:41:55;4;4;
70570;PMS5003;58135;50.948;-1.458;2022-07-29T15:44:21;6;5;
70570;PMS5003;58135;50.948;-1.458;2022-07-29T15:46:47;4;4;
70570;PMS5003;58135;50.948;-1.458;2022-07-29T15:49:17;4;4;
70570;PMS5003;58135;50.948;-1.458;2022-07-29T15:51:43;4;4;
70570;PMS5003;58135;50.948;-1.458;2022-07-29T15:54:04;5;5;
70570;PMS5003;58135;50.948;-1.458;2022-07-29T15:56:29;3;3;
70570;PMS5003;58135;50.948;-1.458;2022-07-29T15:59:00;3;3;
70570;PMS5003;58135;50.948;-1.458;2022-07-29T16:01:19;5;4;
70570;PMS5003;58135;50.948;-1.458;2022-07-29T16:03:50;5;5;
70570;PMS5003;58135;50.948;-1.458;2022-07-29T16:06:16;4;4;
70570;PMS5003;58135;50.948;-1.458;2022-07-29T16:08:40;2;2;
70570;PMS5003;58135;50.948;-1.458;2022-07-29T16:13:26;6;5;
70570;PMS5003;58135;50.948;-1.458;2022-07-29T16:16:01;5;4;
70570;PMS5003;58135;50.948;-1.458;2022-07-29T16:18:30;4;4;
70570;PMS5003;58135;50.948;-1.458;2022-07-29T16:28:05;4;4;
70570;PMS5003;58135;50.948;-1.458;2022-07-29T16:30:31;3;3;
70570;PMS5003;58135;50.948;-1.458;2022-07-29T16:35:49;5;5;
70570;PMS5003;58135;50.948;-1.458;2022-07-29T16:38:05;4;4;
70570;PMS5003;58135;50.948;-1.458;2022-07-29T16:40:17;3;3;
70570;PMS5003;58135;50.948;-1.458;2022-07-29T16:44:58;2;2;
70570;PMS5003;58135;50.948;-1.458;2022-07-29T16:47:30;4;4;
70570;PMS5003;58135;50.948;-1.458;2022-07-29T16:49:52;4;4;
70570;PMS5003;58135;50.948;-1.458;2022-07-29T16:52:20;4;4;
70570;PMS5003;58135;50.948;-1.458;2022-07-29T16:59:30;4;4;
70570;PMS5003;58135;50.948;-1.458;2022-07-29T17:02:00;4;4;
70570;PMS5003;58135;50.948;-1.458;2022-07-29T17:09:26;4;4;
70570;PMS5003;58135;50.948;-1.458;2022-07-29T17:11:47;3;3;
70570;PMS5003;58135;50.948;-1.458;2022-07-29T17:26:17;5;4;
70570;PMS5003;58135;50.948;-1.458;2022-07-29T17:28:36;4;4;
70570;PMS5003;58135;50.948;-1.458;2022-07-29T17:33:27;4;4;
70570;PMS5003;58135;50.948;-1.458;2022-07-29T17:38:23;6;5;
70570;PMS5003;58135;50.948;-1.458;2022-07-29T17:46:25;3;3;
70570;PMS5003;58135;50.948;-1.458;2022-07-29T17:48:50;5;5;
70570;PMS5003;58135;50.948;-1.458;2022-07-29T17:51:16;4;4;
70570;PMS5003;58135;50.948;-1.458;2022-07-29T17:53:41;4;4;
70570;PMS5003;58135;50.948;-1.458;2022-07-29T17:56:07;4;4;
70570;PMS5003;58135;50.948;-1.458;2022-07-29T17:58:32;5;5;
70570;PMS5003;58135;50.948;-1.458;2022-07-29T18:00:58;6;5;
70570;PMS5003;58135;50.948;-1.458;2022-07-29T18:03:23;5;5;
70570;PMS5003;58135;50.948;-1.458;2022-07-29T18:05:48;7;6;
70570;PMS5003;58135;50.948;-1.458;2022-07-29T18:08:14;5;5;
70570;PMS5003;58135;50.948;-1.458;2022-07-29T18:10:39;6;5;
70570;PMS5003;58135;50.948;-1.458;2022-07-29T18:13:05;5;5;
70570;PMS5003;58135;50.948;-1.458;2022-07-29T18:15:30;6;6;
70570;PMS5003;58135;50.948;-1.458;2022-07-29T18:17:56;5;5;
70570;PMS5003;58135;50.948;-1.458;2022-07-29T18:20:21;6;5;
70570;PMS5003;58135;50.948;-1.458;2022-07-29T18:22:47;5;5;
70570;PMS5003;58135;50.948;-1.458;2022-07-29T18:25:12;5;5;
70570;PMS5003;58135;50.948;-1.458;2022-07-29T18:27:38;5;5;
70570;PMS5003;58135;50.948;-1.458;2022-07-29T18:30:04;6;5;
70570;PMS5003;58135;50.948;-1.458;2022-07-29T18:32:29;6;6;
70570;PMS5003;58135;50.948;-1.458;2022-07-29T18:34:54;8;6;
70570;PMS5003;58135;50.948;-1.458;2022-07-29T18:37:19;7;6;
70570;PMS5003;58135;50.948;-1.458;2022-07-29T18:39:45;5;5;
70570;PMS5003;58135;50.948;-1.458;2022-07-29T18:42:10;6;6;
70570;PMS5003;58135;50.948;-1.458;2022-07-29T18:44:36;5;5;
70570;PMS5003;58135;50.948;-1.458;2022-07-29T18:47:01;9;8;
70570;PMS5003;58135;50.948;-1.458;2022-07-29T18:49:27;7;7;
70570;PMS5003;58135;50.948;-1.458;2022-07-29T18:51:52;8;6;
70570;PMS5003;58135;50.948;-1.458;2022-07-29T18:54:18;7;7;
70570;PMS5003;58135;50.948;-1.458;2022-07-29T18:56:43;7;6;
70570;PMS5003;58135;50.948;-1.458;2022-07-29T18:59:09;5;4;
70570;PMS5003;58135;50.948;-1.458;2022-07-29T19:01:34;7;6;
70570;PMS5003;58135;50.948;-1.458;2022-07-29T19:04:00;5;5;
70570;PMS5003;58135;50.948;-1.458;2022-07-29T19:06:25;6;6;
70570;PMS5003;58135;50.948;-1.458;2022-07-29T19:08:50;6;5;
70570;PMS5003;58135;50.948;-1.458;2022-07-29T19:11:16;7;6;
70570;PMS5003;58135;50.948;-1.458;2022-07-29T19:13:41;5;5;
70570;PMS5003;58135;50.948;-1.458;2022-07-29T19:16:07;7;6;
70570;PMS5003;58135;50.948;-1.458;2022-07-29T19:18:32;6;6;
70570;PMS5003;58135;50.948;-1.458;2022-07-29T19:20:58;8;7;
70570;PMS5003;58135;50.948;-1.458;2022-07-29T19:23:23;5;5;
70570;PMS5003;58135;50.948;-1.458;2022-07-29T19:25:48;11;10;
70570;PMS5003;58135;50.948;-1.458;2022-07-29T19:28:14;6;6;
70570;PMS5003;58135;50.948;-1.458;2022-07-29T19:30:39;7;7;
70570;PMS5003;58135;50.948;-1.458;2022-07-29T19:33:05;6;6;
70570;PMS5003;58135;50.948;-1.458;2022-07-29T19:35:30;6;6;
70570;PMS5003;58135;50.948;-1.458;2022-07-29T19:37:57;7;6;
70570;PMS5003;58135;50.948;-1.458;2022-07-29T19:40:21;7;5;
70570;PMS5003;58135;50.948;-1.458;2022-07-29T19:42:46;6;6;
70570;PMS5003;58135;50.948;-1.458;2022-07-29T19:45:12;6;6;
70570;PMS5003;58135;50.948;-1.458;2022-07-29T19:47:37;7;7;
70570;PMS5003;58135;50.948;-1.458;2022-07-29T19:50:03;8;7;
70570;PMS5003;58135;50.948;-1.458;2022-07-29T19:52:28;6;6;
70570;PMS5003;58135;50.948;-1.458;2022-07-29T19:54:54;7;7;
70570;PMS5003;58135;50.948;-1.458;2022-07-29T19:57:19;8;8;
70570;PMS5003;58135;50.948;-1.458;2022-07-29T19:59:45;7;7;
70570;PMS5003;58135;50.948;-1.458;2022-07-29T20:02:10;7;7;
70570;PMS5003;58135;50.948;-1.458;2022-07-29T20:04:36;6;6;
70570;PMS5003;58135;50.948;-1.458;2022-07-29T20:07:02;6;5;
70570;PMS5003;58135;50.948;-1.458;2022-07-29T20:09:27;6;6;
70570;PMS5003;58135;50.948;-1.458;2022-07-29T20:11:52;9;7;
70570;PMS5003;58135;50.948;-1.458;2022-07-29T20:14:18;9;8;
70570;PMS5003;58135;50.948;-1.458;2022-07-29T20:16:43;8;6;
70570;PMS5003;58135;50.948;-1.458;2022-07-29T20:19:09;9;9;
70570;PMS5003;58135;50.948;-1.458;2022-07-29T20:21:34;7;7;
70570;PMS5003;58135;50.948;-1.458;2022-07-29T20:24:01;6;6;
70570;PMS5003;58135;50.948;-1.458;2022-07-29T20:26:26;8;8;
70570;PMS5003;58135;50.948;-1.458;2022-07-29T20:28:51;8;7;
70570;PMS5003;58135;50.948;-1.458;2022-07-29T20:31:16;8;7;
70570;PMS5003;58135;50.948;-1.458;2022-07-29T20:33:42;7;6;
70570;PMS5003;58135;50.948;-1.458;2022-07-29T20:36:07;7;7;
70570;PMS5003;58135;50.948;-1.458;2022-07-29T20:38:33;8;8;